createdAt,value
2019-02-07T00:00:56.351Z,7.10
2019-02-07T00:03:25.624Z,7.10
2019-02-07T00:05:54.832Z,7.10
2019-02-07T00:08:24.081Z,7.10
2019-02-07T00:10:53.124Z,7.10
2019-02-07T00:13:22.268Z,7.10
2019-02-07T00:15:51.308Z,7.10
2019-02-07T00:18:20.494Z,7.10
2019-02-07T00:20:49.609Z,7.20
2019-02-07T00:23:19.214Z,7.10
2019-02-07T00:25:48.470Z,7.10
2019-02-07T00:28:17.710Z,7.10
2019-02-07T00:30:46.935Z,7.10
2019-02-07T00:33:16.139Z,7.10
2019-02-07T00:35:45.272Z,7.00
2019-02-07T00:38:14.409Z,7.00
2019-02-07T00:40:43.578Z,7.00
2019-02-07T00:43:12.713Z,7.00
2019-02-07T00:45:41.787Z,7.00
2019-02-07T00:48:10.858Z,7.00
2019-02-07T00:50:39.900Z,7.00
2019-02-07T00:53:09.154Z,7.00
2019-02-07T00:55:38.372Z,7.00
2019-02-07T00:58:07.503Z,7.00
2019-02-07T01:00:36.699Z,6.90
2019-02-07T01:03:05.801Z,6.90
2019-02-07T01:05:34.922Z,6.90
2019-02-07T01:08:04.530Z,6.90
2019-02-07T01:10:33.718Z,6.90
2019-02-07T01:13:02.828Z,6.90
2019-02-07T01:15:32.304Z,7.00
2019-02-07T01:18:01.495Z,7.00
2019-02-07T01:20:30.707Z,7.00
2019-02-07T01:22:59.905Z,7.00
2019-02-07T01:25:29.057Z,7.00
2019-02-07T01:27:58.403Z,6.90
2019-02-07T01:30:27.570Z,6.90
2019-02-07T01:32:56.661Z,6.90
2019-02-07T01:35:25.732Z,6.90
2019-02-07T01:37:55.182Z,6.90
2019-02-07T01:40:24.320Z,6.80
2019-02-07T01:42:55.739Z,6.90
2019-02-07T01:45:24.271Z,6.80
2019-02-07T01:47:53.305Z,6.80
2019-02-07T01:50:23.123Z,6.80
2019-02-07T01:52:52.590Z,6.80
2019-02-07T01:55:21.949Z,6.80
2019-02-07T01:57:51.004Z,6.70
2019-02-07T02:00:20.199Z,6.70
2019-02-07T02:02:49.344Z,6.70
2019-02-07T02:05:19.079Z,6.70
2019-02-07T02:07:48.542Z,6.70
2019-02-07T02:10:19.887Z,6.60
2019-02-07T02:12:49.210Z,6.60
2019-02-07T02:15:24.512Z,6.60
2019-02-07T02:17:51.435Z,6.60
2019-02-07T02:20:21.739Z,6.60
2019-02-07T02:22:51.149Z,6.60
2019-02-07T02:25:20.262Z,6.50
2019-02-07T02:27:49.364Z,6.60
2019-02-07T02:30:29.672Z,6.50
2019-02-07T02:32:58.711Z,6.50
2019-02-07T02:35:27.785Z,6.50
2019-02-07T02:37:56.899Z,6.50
2019-02-07T02:40:26.407Z,6.50
2019-02-07T02:42:56.098Z,6.50
2019-02-07T02:45:36.665Z,6.50
2019-02-07T02:47:56.243Z,6.50
2019-02-07T02:50:25.324Z,6.50
2019-02-07T02:52:54.494Z,6.50
2019-02-07T02:55:32.649Z,6.50
2019-02-07T02:58:01.751Z,6.40
2019-02-07T03:00:48.933Z,6.40
2019-02-07T03:03:23.811Z,6.40
2019-02-07T03:06:24.234Z,6.40
2019-02-07T03:09:12.716Z,6.40
2019-02-07T03:11:54.595Z,6.30
2019-02-07T03:14:50.571Z,6.20
2019-02-07T03:17:37.471Z,6.10
2019-02-07T03:20:25.273Z,6.00
2019-02-07T03:23:20.172Z,5.90
2019-02-07T03:26:07.226Z,5.90
2019-02-07T03:28:54.355Z,5.90
2019-02-07T03:31:54.567Z,5.80
2019-02-07T03:34:39.833Z,5.80
2019-02-07T03:37:15.135Z,5.80
2019-02-07T03:40:00.644Z,5.80
2019-02-07T03:42:41.126Z,5.80
2019-02-07T03:45:41.560Z,5.80
2019-02-07T03:48:28.867Z,5.80
2019-02-07T03:51:08.417Z,5.70
2019-02-07T03:53:51.277Z,5.60
2019-02-07T03:56:42.531Z,5.60
2019-02-07T03:59:20.093Z,5.60
2019-02-07T04:02:11.091Z,5.60
2019-02-07T04:04:55.049Z,5.60
2019-02-07T04:07:36.982Z,5.50
2019-02-07T04:10:16.634Z,5.50
2019-02-07T04:13:17.142Z,5.50
2019-02-07T04:16:15.095Z,5.50
2019-02-07T04:18:58.165Z,5.40
2019-02-07T04:22:04.273Z,5.40
2019-02-07T04:24:54.023Z,5.30
2019-02-07T04:27:39.483Z,5.20
2019-02-07T04:30:30.781Z,5.20
2019-02-07T04:33:30.905Z,5.20
2019-02-07T04:36:08.254Z,5.10
2019-02-07T04:38:54.920Z,5.10
2019-02-07T04:41:45.485Z,5.10
2019-02-07T04:44:33.695Z,5.10
2019-02-07T04:47:33.783Z,5.20
2019-02-07T04:50:33.410Z,5.20
2019-02-07T04:53:27.862Z,5.30
2019-02-07T04:56:21.900Z,5.30
2019-02-07T04:59:04.207Z,5.40
2019-02-07T05:01:52.417Z,5.40
2019-02-07T05:04:52.826Z,5.50
2019-02-07T05:07:37.294Z,5.60
2019-02-07T05:10:32.780Z,5.60
2019-02-07T05:13:20.909Z,5.70
2019-02-07T05:16:38.822Z,5.80
2019-02-07T05:19:15.230Z,5.80
2019-02-07T05:22:21.160Z,5.90
2019-02-07T05:24:57.015Z,5.90
2019-02-07T05:27:43.808Z,6.00
2019-02-07T05:30:32.905Z,6.00
2019-02-07T05:33:19.955Z,6.00
2019-02-07T05:36:20.466Z,6.00
2019-02-07T05:39:07.603Z,6.00
2019-02-07T05:42:05.069Z,6.00
2019-02-07T05:44:42.143Z,6.00
2019-02-07T05:47:29.127Z,6.00
2019-02-07T05:50:14.413Z,5.90
2019-02-07T05:52:56.886Z,5.90
2019-02-07T05:55:44.911Z,5.90
2019-02-07T05:58:31.388Z,5.90
2019-02-07T06:01:22.669Z,6.00
2019-02-07T06:04:17.940Z,6.10
2019-02-07T06:07:06.068Z,6.10
2019-02-07T06:09:54.867Z,6.10
2019-02-07T06:12:43.372Z,6.00
2019-02-07T06:15:30.326Z,6.10
2019-02-07T06:18:17.358Z,6.10
2019-02-07T06:20:53.708Z,6.10
2019-02-07T06:23:54.173Z,6.10
2019-02-07T06:26:34.790Z,6.20
2019-02-07T06:29:29.060Z,6.10
2019-02-07T06:32:16.054Z,6.10
2019-02-07T06:35:13.474Z,6.10
2019-02-07T06:37:55.390Z,6.10
2019-02-07T06:41:12.119Z,6.10
2019-02-07T06:44:21.247Z,6.10
2019-02-07T06:47:13.846Z,6.20
2019-02-07T06:50:17.325Z,6.20
2019-02-07T06:53:01.135Z,6.20
2019-02-07T06:55:48.227Z,6.10
2019-02-07T06:58:36.552Z,6.10
2019-02-07T07:01:20.758Z,6.00
2019-02-07T07:04:08.944Z,6.00
2019-02-07T07:06:56.122Z,5.90
2019-02-07T07:10:02.490Z,5.90
2019-02-07T07:12:42.681Z,5.90
2019-02-07T07:15:24.224Z,6.00
2019-02-07T07:18:11.105Z,6.00
2019-02-07T07:21:08.597Z,6.00
2019-02-07T07:23:58.841Z,6.00
2019-02-07T07:26:43.152Z,6.10
2019-02-07T07:29:43.773Z,6.10
2019-02-07T07:32:40.799Z,6.10
2019-02-07T07:35:28.316Z,6.20
2019-02-07T07:38:15.216Z,6.30
2019-02-07T07:41:08.439Z,6.30
2019-02-07T07:44:05.016Z,6.30
2019-02-07T07:47:05.430Z,6.40
2019-02-07T07:49:51.308Z,6.50
2019-02-07T07:52:42.524Z,6.50
2019-02-07T07:55:26.340Z,6.50
2019-02-07T07:58:26.372Z,6.50
2019-02-07T08:01:20.625Z,6.60
2019-02-07T08:03:59.795Z,6.60
2019-02-07T08:06:36.380Z,6.60
2019-02-07T08:09:38.508Z,6.60
2019-02-07T08:12:36.755Z,6.60
2019-02-07T08:15:30.351Z,6.50
2019-02-07T08:18:16.921Z,6.40
2019-02-07T08:21:05.452Z,6.40
2019-02-07T08:23:57.570Z,6.40
2019-02-07T08:26:44.414Z,6.40
2019-02-07T08:29:38.355Z,6.40
2019-02-07T08:32:29.201Z,6.30
2019-02-07T08:35:22.636Z,6.30
2019-02-07T08:38:25.710Z,6.30
2019-02-07T08:41:12.639Z,6.30
2019-02-07T08:43:49.257Z,6.30
2019-02-07T08:46:32.952Z,6.30
2019-02-07T08:49:21.143Z,6.40
2019-02-07T08:52:11.372Z,6.50
2019-02-07T08:55:05.479Z,6.50
2019-02-07T08:57:43.358Z,6.60
2019-02-07T09:00:32.563Z,6.70
2019-02-07T09:03:29.642Z,6.70
2019-02-07T09:06:23.557Z,6.80
2019-02-07T09:09:20.579Z,7.00
2019-02-07T09:12:01.769Z,7.10
2019-02-07T09:14:49.927Z,7.20
2019-02-07T09:17:38.520Z,7.30
2019-02-07T09:20:40.110Z,7.40
2019-02-07T09:23:22.722Z,7.50
2019-02-07T09:26:03.537Z,7.50
2019-02-07T09:28:54.493Z,7.60
2019-02-07T09:31:54.924Z,7.70
2019-02-07T09:34:43.240Z,7.70
2019-02-07T09:37:40.729Z,7.70
2019-02-07T09:40:31.972Z,7.80
2019-02-07T09:43:13.154Z,7.80
2019-02-07T09:46:00.791Z,7.80
2019-02-07T09:48:47.701Z,7.90
2019-02-07T09:51:40.289Z,7.90
2019-02-07T09:54:27.087Z,7.90
2019-02-07T09:57:18.301Z,7.90
2019-02-07T10:00:15.402Z,7.90
2019-02-07T10:02:52.892Z,7.90
2019-02-07T10:05:29.179Z,8.00
2019-02-07T10:08:20.053Z,7.90
2019-02-07T10:11:06.908Z,8.00
2019-02-07T10:14:04.514Z,8.00
2019-02-07T10:16:43.248Z,8.10
2019-02-07T10:19:34.410Z,8.10
2019-02-07T10:22:10.737Z,8.10
2019-02-07T10:24:57.761Z,8.20
2019-02-07T10:27:38.987Z,8.20
2019-02-07T10:30:29.688Z,8.30
2019-02-07T10:33:11.873Z,8.40
2019-02-07T10:36:02.102Z,8.50
2019-02-07T10:38:38.551Z,8.60
2019-02-07T10:41:41.644Z,8.60
2019-02-07T10:44:22.239Z,8.70
2019-02-07T10:47:14.586Z,8.70
2019-02-07T10:49:59.253Z,8.60
2019-02-07T10:52:36.127Z,8.70
2019-02-07T10:55:29.455Z,8.70
2019-02-07T10:58:20.872Z,8.70
2019-02-07T11:01:07.584Z,8.80
2019-02-07T11:03:54.524Z,8.80
2019-02-07T11:06:39.324Z,8.80
2019-02-07T11:09:27.831Z,8.80
2019-02-07T11:12:34.074Z,8.80
2019-02-07T11:15:21.212Z,8.80
2019-02-07T11:18:03.419Z,8.90
2019-02-07T11:20:43.604Z,9.00
2019-02-07T11:23:36.423Z,9.00
2019-02-07T11:26:23.331Z,9.00
2019-02-07T11:29:23.398Z,9.00
2019-02-07T11:32:00.644Z,9.00
2019-02-07T11:34:47.567Z,9.00
2019-02-07T11:37:46.262Z,9.00
2019-02-07T11:40:34.571Z,9.10
2019-02-07T11:43:22.684Z,9.10
2019-02-07T11:46:06.886Z,9.10
2019-02-07T11:48:55.031Z,9.20
2019-02-07T11:51:32.721Z,9.20
2019-02-07T11:54:20.727Z,9.20
2019-02-07T11:57:06.629Z,9.10
2019-02-07T11:59:53.614Z,9.10
2019-02-07T12:02:47.943Z,9.10
2019-02-07T12:05:36.055Z,9.20
2019-02-07T12:08:23.012Z,9.30
2019-02-07T12:11:10.124Z,9.50
2019-02-07T12:13:47.651Z,9.60
2019-02-07T12:16:38.848Z,9.70
2019-02-07T12:19:31.501Z,9.80
2019-02-07T12:22:25.748Z,9.90
2019-02-07T12:25:23.058Z,9.80
2019-02-07T12:28:10.032Z,9.80
2019-02-07T12:31:01.145Z,9.70
2019-02-07T12:34:07.602Z,9.70
2019-02-07T12:36:56.115Z,9.70
2019-02-07T12:39:37.747Z,9.70
2019-02-07T12:42:26.077Z,9.70
2019-02-07T12:45:14.023Z,9.70
2019-02-07T12:48:04.032Z,9.80
2019-02-07T12:50:49.816Z,10.10
2019-02-07T12:53:31.198Z,10.50
2019-02-07T12:56:23.361Z,10.80
2019-02-07T12:59:11.501Z,10.60
2019-02-07T13:02:01.187Z,10.80
2019-02-07T13:04:51.795Z,11.30
2019-02-07T13:07:39.942Z,11.60
2019-02-07T13:10:31.463Z,11.70
2019-02-07T13:13:20.737Z,11.60
2019-02-07T13:16:06.898Z,11.70
2019-02-07T13:18:51.103Z,11.40
2019-02-07T13:21:40.267Z,11.00
2019-02-07T13:24:38.407Z,10.70
2019-02-07T13:27:40.012Z,10.60
2019-02-07T13:30:29.484Z,10.60
2019-02-07T13:33:10.867Z,10.50
2019-02-07T13:36:09.525Z,10.50
2019-02-07T13:38:49.605Z,10.40
2019-02-07T13:41:43.043Z,10.20
2019-02-07T13:44:35.272Z,10.20
2019-02-07T13:47:31.221Z,10.20
2019-02-07T13:50:27.475Z,10.10
2019-02-07T13:53:14.309Z,10.10
2019-02-07T13:56:02.491Z,10.10
2019-02-07T13:58:44.365Z,10.10
2019-02-07T14:01:46.859Z,10.00
2019-02-07T14:04:42.133Z,9.90
2019-02-07T14:07:30.978Z,9.90
2019-02-07T14:10:38.956Z,9.80
2019-02-07T14:13:46.494Z,9.80
2019-02-07T14:16:35.492Z,9.80
2019-02-07T14:19:38.462Z,9.70
2019-02-07T14:22:27.227Z,9.70
2019-02-07T14:25:15.872Z,9.70
2019-02-07T14:28:04.414Z,9.60
2019-02-07T14:30:54.533Z,9.50
2019-02-07T14:33:51.769Z,9.50
2019-02-07T14:36:41.893Z,9.50
2019-02-07T14:39:34.320Z,9.50
2019-02-07T14:42:42.400Z,9.50
2019-02-07T14:45:25.762Z,9.40
2019-02-07T14:47:56.967Z,9.40
2019-02-07T14:50:28.702Z,9.40
2019-02-07T14:53:02.027Z,9.40
2019-02-07T14:55:32.528Z,9.40
2019-02-07T14:58:03.782Z,9.30
2019-02-07T15:00:35.076Z,9.30
2019-02-07T15:03:06.743Z,9.30
2019-02-07T15:05:37.569Z,9.30
2019-02-07T15:08:08.695Z,9.30
2019-02-07T15:10:37.909Z,9.30
2019-02-07T15:13:06.989Z,9.30
2019-02-07T15:15:36.107Z,9.30
2019-02-07T15:18:06.061Z,9.30
2019-02-07T15:20:35.175Z,9.30
2019-02-07T15:23:04.411Z,9.30
2019-02-07T15:25:36.402Z,9.20
2019-02-07T15:28:06.996Z,9.20
2019-02-07T15:30:36.271Z,9.20
2019-02-07T15:33:05.453Z,9.20
2019-02-07T15:35:37.350Z,9.20
2019-02-07T15:38:06.411Z,9.20
2019-02-07T15:40:35.756Z,9.10
2019-02-07T15:43:04.873Z,9.10
2019-02-07T15:45:36.210Z,9.10
2019-02-07T15:48:05.525Z,9.10
2019-02-07T15:50:38.464Z,9.00
2019-02-07T15:53:06.462Z,9.00
2019-02-07T15:55:35.534Z,9.00
2019-02-07T15:58:04.743Z,9.00
2019-02-07T16:01:07.967Z,8.90
2019-02-07T16:03:44.622Z,8.90
2019-02-07T16:06:13.777Z,8.90
2019-02-07T16:08:42.948Z,8.80
2019-02-07T16:11:12.092Z,8.80
2019-02-07T16:13:41.203Z,8.70
2019-02-07T16:16:10.310Z,8.70
2019-02-07T16:18:41.818Z,8.70
2019-02-07T16:21:10.511Z,8.70
2019-02-07T16:23:39.716Z,8.60
2019-02-07T16:26:09.332Z,8.60
2019-02-07T16:28:38.467Z,8.60
2019-02-07T16:31:07.661Z,8.50
2019-02-07T16:33:36.775Z,8.50
2019-02-07T16:36:06.726Z,8.50
2019-02-07T16:38:35.863Z,8.50
2019-02-07T16:41:05.835Z,8.50
2019-02-07T16:43:35.416Z,8.60
2019-02-07T16:46:05.057Z,8.60
2019-02-07T16:48:35.803Z,8.60
2019-02-07T16:51:05.340Z,8.60
2019-02-07T16:53:34.747Z,8.70
2019-02-07T16:56:04.832Z,8.60
2019-02-07T16:58:35.360Z,8.60
2019-02-07T17:01:06.375Z,8.60
2019-02-07T17:03:35.526Z,8.70
2019-02-07T17:06:05.242Z,8.70
2019-02-07T17:08:34.616Z,8.70
2019-02-07T17:11:04.182Z,8.70
2019-02-07T17:13:33.285Z,8.70
2019-02-07T17:16:02.586Z,8.70
2019-02-07T17:18:31.576Z,8.70
2019-02-07T17:21:11.254Z,8.70
2019-02-07T17:23:31.614Z,8.70
2019-02-07T17:26:02.575Z,8.70
2019-02-07T17:28:31.680Z,8.70
2019-02-07T17:31:00.923Z,8.60
2019-02-07T17:33:30.952Z,8.50
2019-02-07T17:36:00.033Z,8.50
2019-02-07T17:38:29.254Z,8.50
2019-02-07T17:40:58.452Z,8.50
2019-02-07T17:43:27.750Z,8.50
2019-02-07T17:45:57.468Z,8.50
2019-02-07T17:48:26.583Z,8.50
2019-02-07T17:50:55.931Z,8.50
2019-02-07T17:53:25.821Z,8.50
2019-02-07T17:55:55.183Z,8.50
2019-02-07T17:58:24.816Z,8.40
2019-02-07T18:01:06.325Z,8.40
2019-02-07T18:03:36.054Z,8.40
2019-02-07T18:06:07.263Z,8.40
2019-02-07T18:08:38.162Z,8.40
2019-02-07T18:11:11.118Z,8.30
2019-02-07T18:13:43.518Z,8.20
2019-02-07T18:16:12.910Z,8.20
2019-02-07T18:18:44.698Z,8.10
2019-02-07T18:21:14.266Z,8.10
2019-02-07T18:23:44.807Z,8.00
2019-02-07T18:26:14.295Z,8.00
2019-02-07T18:28:46.579Z,8.00
2019-02-07T18:31:15.929Z,7.90
2019-02-07T18:33:45.402Z,7.90
2019-02-07T18:36:14.662Z,7.90
2019-02-07T18:38:44.915Z,7.80
2019-02-07T18:41:14.157Z,7.70
2019-02-07T18:43:43.361Z,7.70
2019-02-07T18:46:12.502Z,7.60
2019-02-07T18:48:41.707Z,7.60
2019-02-07T18:51:11.002Z,7.50
2019-02-07T18:53:40.204Z,7.50
2019-02-07T18:56:09.401Z,7.60
2019-02-07T18:58:38.659Z,7.50
2019-02-07T19:01:07.942Z,7.50
2019-02-07T19:03:37.310Z,7.50
2019-02-07T19:06:06.873Z,7.50
2019-02-07T19:08:36.120Z,7.40
2019-02-07T19:11:05.308Z,7.50
2019-02-07T19:13:34.551Z,7.50
2019-02-07T19:16:11.524Z,7.40
2019-02-07T19:18:40.622Z,7.50
2019-02-07T19:21:09.937Z,7.40
2019-02-07T19:23:40.127Z,7.40
2019-02-07T19:26:09.407Z,7.40
2019-02-07T19:28:38.468Z,7.40
2019-02-07T19:31:07.756Z,7.40
2019-02-07T19:33:37.012Z,7.40
2019-02-07T19:36:06.323Z,7.40
2019-02-07T19:38:35.535Z,7.30
2019-02-07T19:41:05.098Z,7.40
2019-02-07T19:43:34.395Z,7.30
2019-02-07T19:46:03.669Z,7.30
2019-02-07T19:48:32.982Z,7.30
2019-02-07T19:51:02.661Z,7.30
2019-02-07T19:53:31.769Z,7.30
2019-02-07T19:56:01.019Z,7.40
2019-02-07T19:58:30.329Z,7.30
2019-02-07T20:00:59.504Z,7.30
2019-02-07T20:03:28.591Z,7.30
2019-02-07T20:05:58.023Z,7.30
2019-02-07T20:08:27.172Z,7.20
2019-02-07T20:10:56.419Z,7.20
2019-02-07T20:13:25.605Z,7.20
2019-02-07T20:15:54.651Z,7.20
2019-02-07T20:18:24.997Z,7.20
2019-02-07T20:20:54.589Z,7.20
2019-02-07T20:23:23.824Z,7.20
2019-02-07T20:25:55.307Z,7.20
2019-02-07T20:28:24.492Z,7.20
2019-02-07T20:30:56.897Z,7.20
2019-02-07T20:33:26.137Z,7.20
2019-02-07T20:35:55.277Z,7.20
2019-02-07T20:38:25.233Z,7.20
2019-02-07T20:40:57.605Z,7.20
2019-02-07T20:43:27.220Z,7.10
2019-02-07T20:46:16.004Z,7.10
2019-02-07T20:48:45.251Z,7.10
2019-02-07T20:51:14.475Z,7.10
2019-02-07T20:53:43.615Z,7.00
2019-02-07T20:56:12.814Z,7.00
2019-02-07T20:58:42.138Z,7.10
2019-02-07T21:01:11.280Z,7.00
2019-02-07T21:03:40.641Z,7.00
2019-02-07T21:06:10.279Z,7.00
2019-02-07T21:08:39.610Z,7.10
2019-02-07T21:11:08.904Z,7.10
2019-02-07T21:13:38.104Z,7.10
2019-02-07T21:16:07.259Z,7.10
2019-02-07T21:18:36.359Z,7.10
2019-02-07T21:21:05.595Z,7.00
2019-02-07T21:23:35.022Z,7.00
2019-02-07T21:26:04.144Z,7.10
2019-02-07T21:28:33.472Z,7.00
2019-02-07T21:31:02.593Z,7.00
2019-02-07T21:33:31.660Z,7.00
2019-02-07T21:36:00.866Z,6.90
2019-02-07T21:38:29.993Z,6.90
2019-02-07T21:40:59.192Z,6.90
2019-02-07T21:43:28.401Z,6.90
2019-02-07T21:45:57.587Z,6.90
2019-02-07T21:48:27.909Z,6.90
2019-02-07T21:50:57.155Z,6.90
2019-02-07T21:53:26.412Z,6.90
2019-02-07T21:55:55.855Z,6.90
2019-02-07T21:58:24.959Z,6.90
2019-02-07T22:00:54.065Z,6.90
2019-02-07T22:03:23.178Z,6.90
2019-02-07T22:05:52.264Z,6.90
2019-02-07T22:08:21.288Z,6.90
2019-02-07T22:10:50.452Z,6.90
2019-02-07T22:13:19.617Z,6.90
2019-02-07T22:15:48.707Z,6.90
2019-02-07T22:18:17.658Z,6.90
2019-02-07T22:20:46.708Z,6.90
2019-02-07T22:23:15.794Z,6.90
2019-02-07T22:25:44.973Z,6.90
2019-02-07T22:28:14.112Z,6.90
2019-02-07T22:30:43.245Z,6.90
2019-02-07T22:33:12.414Z,6.90
2019-02-07T22:35:41.520Z,6.90
2019-02-07T22:38:10.627Z,6.90
2019-02-07T22:40:39.815Z,6.80
2019-02-07T22:43:09.271Z,6.80
2019-02-07T22:45:38.321Z,6.80
2019-02-07T22:48:07.871Z,6.80
2019-02-07T22:50:36.948Z,6.80
2019-02-07T22:53:06.204Z,6.80
2019-02-07T22:55:35.438Z,6.80
2019-02-07T22:58:06.641Z,6.80
2019-02-07T23:01:21.552Z,6.70
2019-02-07T23:03:52.746Z,6.70
2019-02-07T23:06:22.004Z,6.70
2019-02-07T23:08:51.249Z,6.80
2019-02-07T23:11:20.694Z,6.80
2019-02-07T23:13:49.904Z,6.80
2019-02-07T23:16:19.185Z,6.80
2019-02-07T23:18:48.636Z,6.80
2019-02-07T23:21:17.708Z,6.80
2019-02-07T23:23:46.766Z,6.80
2019-02-07T23:26:15.839Z,6.80
2019-02-07T23:28:44.949Z,6.80
2019-02-07T23:31:14.026Z,6.80
2019-02-07T23:33:43.469Z,6.80
2019-02-07T23:36:12.532Z,6.80
2019-02-07T23:38:41.566Z,6.70
2019-02-07T23:41:11.154Z,6.70
2019-02-07T23:43:45.876Z,6.70
2019-02-07T23:46:11.533Z,6.70
2019-02-07T23:48:40.626Z,6.70
2019-02-07T23:51:09.681Z,6.60
2019-02-07T23:53:38.890Z,6.60
2019-02-07T23:56:08.267Z,6.60
2019-02-07T23:58:37.370Z,6.60
